Time;durP1;ratioP1;P1;durP2;ratioP2;P2;SDS_P1;SDS_P2;PMS_P1;PMS_P2;Temp;Humidity;BMP_temperature;BMP_pressure;BME280_temperature;BME280_humidity;BME280_pressure;Samples;Min_cycle;Max_cycle;Signal;HPM_P1;HPM_P2
2021/10/17 00:00:17;;;;;;;0.50;0.40;;;7.50;99.90;;;;;;5038408;28;20227;-81
2021/10/17 00:02:44;;;;;;;0.50;0.40;;;7.50;99.90;;;;;;5039054;28;20180;-81
2021/10/17 00:05:11;;;;;;;0.70;0.70;;;7.40;99.90;;;;;;5039114;28;20255;-81
2021/10/17 00:07:38;;;;;;;0.50;0.40;;;7.40;99.90;;;;;;5038735;28;20233;-81
2021/10/17 00:10:08;;;;;;;0.50;0.40;;;7.40;99.90;;;;;;5037427;28;20567;-77
2021/10/17 00:12:36;;;;;;;0.50;0.40;;;7.30;99.90;;;;;;5039173;28;20588;-80
2021/10/17 00:15:04;;;;;;;0.50;0.40;;;7.20;99.90;;;;;;5038285;28;20203;-81
2021/10/17 00:17:32;;;;;;;0.50;0.40;;;7.20;99.90;;;;;;5038588;28;20220;-80
2021/10/17 00:19:59;;;;;;;0.50;0.40;;;7.00;99.90;;;;;;5038494;28;20223;-81
2021/10/17 00:22:26;;;;;;;0.50;0.40;;;6.90;99.90;;;;;;5037168;28;20203;-80
2021/10/17 00:24:52;;;;;;;0.50;0.40;;;6.70;99.90;;;;;;5038473;28;20206;-80
2021/10/17 00:27:19;;;;;;;0.50;0.40;;;6.60;99.90;;;;;;5038593;28;20222;-81
2021/10/17 00:29:46;;;;;;;0.50;0.40;;;6.50;99.90;;;;;;5037837;28;20621;-81
2021/10/17 00:32:13;;;;;;;0.50;0.50;;;6.50;99.90;;;;;;5037074;28;20677;-81
2021/10/17 00:34:42;;;;;;;0.50;0.40;;;6.40;99.90;;;;;;5038213;28;20198;-81
2021/10/17 00:37:08;;;;;;;0.50;0.40;;;6.20;99.90;;;;;;5038242;28;20221;-80
2021/10/17 00:39:35;;;;;;;0.50;0.40;;;6.20;99.90;;;;;;5037700;28;20212;-81
2021/10/17 00:42:04;;;;;;;0.50;0.40;;;6.00;99.90;;;;;;5037960;28;20196;-81
2021/10/17 00:44:32;;;;;;;1.10;1.00;;;6.00;99.90;;;;;;5037330;28;20223;-80
2021/10/17 00:46:59;;;;;;;0.50;0.40;;;5.90;99.90;;;;;;5037725;28;20226;-80
2021/10/17 00:49:26;;;;;;;0.50;0.50;;;5.80;99.90;;;;;;5037792;28;20282;-80
2021/10/17 00:51:54;;;;;;;0.50;0.40;;;5.70;99.90;;;;;;5037515;28;20200;-80
2021/10/17 00:54:21;;;;;;;0.50;0.40;;;5.70;99.90;;;;;;5038078;28;20199;-80
2021/10/17 00:56:48;;;;;;;0.50;0.47;;;5.60;99.90;;;;;;5037942;28;20227;-80
2021/10/17 00:59:15;;;;;;;0.50;0.40;;;5.50;99.90;;;;;;5037310;28;20207;-80
2021/10/17 01:01:42;;;;;;;0.50;0.50;;;5.60;99.90;;;;;;5037071;28;20203;-81
2021/10/17 01:04:09;;;;;;;0.50;0.50;;;5.60;99.90;;;;;;5037424;28;20210;-81
2021/10/17 01:06:37;;;;;;;0.50;0.40;;;5.50;99.90;;;;;;5037889;28;20238;-80
2021/10/17 01:09:05;;;;;;;0.50;0.40;;;5.50;99.90;;;;;;5037877;28;20180;-80
2021/10/17 01:11:43;;;;;;;0.50;0.50;;;5.50;99.90;;;;;;5036983;28;20669;-80
2021/10/17 01:14:10;;;;;;;0.50;0.40;;;5.40;99.90;;;;;;5036964;28;20203;-81
2021/10/17 01:16:39;;;;;;;0.50;0.40;;;5.40;99.90;;;;;;5037281;28;20223;-81
2021/10/17 01:19:06;;;;;;;0.50;0.50;;;5.30;99.90;;;;;;5037404;28;20270;-80
2021/10/17 01:21:36;;;;;;;0.50;0.40;;;5.30;99.90;;;;;;5036442;28;20230;-81
2021/10/17 01:24:04;;;;;;;0.50;0.40;;;5.30;99.90;;;;;;5037536;28;20191;-81
2021/10/17 01:26:31;;;;;;;1.83;1.38;;;5.50;99.90;;;;;;5036097;28;20217;-80
2021/10/17 01:28:58;;;;;;;0.50;0.50;;;5.50;99.90;;;;;;5037110;28;20219;-80
2021/10/17 01:31:33;;;;;;;0.70;0.70;;;5.60;99.90;;;;;;5036234;28;20690;-81
2021/10/17 01:34:00;;;;;;;2.83;2.72;;;5.70;99.90;;;;;;5037272;28;20656;-80
2021/10/17 01:36:27;;;;;;;0.60;0.50;;;5.80;99.90;;;;;;5036812;28;20227;-81
2021/10/17 01:38:56;;;;;;;1.20;0.95;;;6.00;99.90;;;;;;5037247;28;20208;-80
2021/10/17 01:41:22;;;;;;;0.50;0.40;;;6.20;99.90;;;;;;5037101;28;20222;-81
2021/10/17 01:43:49;;;;;;;1.30;1.20;;;6.50;99.90;;;;;;5037285;28;20200;-81
2021/10/17 01:46:16;;;;;;;0.73;0.73;;;6.70;99.90;;;;;;5037332;28;20578;-81
2021/10/17 01:48:43;;;;;;;0.60;0.52;;;6.80;99.90;;;;;;5037761;28;20208;-80
2021/10/17 01:51:10;;;;;;;5.53;2.90;;;6.90;99.90;;;;;;5037357;28;20201;-81
2021/10/17 01:53:36;;;;;;;1.23;1.13;;;7.00;99.90;;;;;;5036607;28;20661;-80
2021/10/17 01:56:05;;;;;;;1.50;0.95;;;7.10;99.90;;;;;;5036792;28;20213;-80
2021/10/17 01:58:31;;;;;;;0.60;0.50;;;7.10;99.90;;;;;;5036927;28;20667;-81
2021/10/17 02:00:58;;;;;;;0.50;0.40;;;7.20;99.90;;;;;;5036715;28;20225;-81
2021/10/17 02:03:25;;;;;;;0.50;0.40;;;7.30;99.90;;;;;;5036713;28;20205;-80
2021/10/17 02:05:52;;;;;;;1.95;1.85;;;7.30;99.90;;;;;;5037148;28;20205;-80
2021/10/17 02:08:18;;;;;;;1.02;0.93;;;7.20;99.90;;;;;;5036497;28;20523;-80
2021/10/17 02:10:45;;;;;;;0.75;0.75;;;7.20;99.90;;;;;;5037439;28;20543;-80
2021/10/17 02:13:13;;;;;;;22.63;2.05;;;7.30;99.90;;;;;;5037542;22;20229;-76
2021/10/17 02:15:40;;;;;;;0.60;0.60;;;7.30;99.90;;;;;;5013065;28;20201;-76
2021/10/17 02:18:07;;;;;;;0.50;0.40;;;7.40;99.90;;;;;;5012297;28;20488;-75
2021/10/17 02:20:34;;;;;;;0.50;0.50;;;7.40;99.90;;;;;;5011740;28;20218;-76
2021/10/17 02:23:03;;;;;;;0.65;0.65;;;7.40;99.90;;;;;;5011755;28;20237;-76
2021/10/17 02:25:30;;;;;;;0.50;0.40;;;7.40;99.90;;;;;;5012089;28;20549;-76
2021/10/17 02:27:57;;;;;;;1.33;1.23;;;7.50;99.90;;;;;;5011646;28;20200;-76
2021/10/17 02:30:26;;;;;;;0.60;0.50;;;7.50;99.90;;;;;;5011662;28;20200;-73
2021/10/17 02:32:52;;;;;;;0.50;0.40;;;7.50;99.90;;;;;;5011617;28;20717;-77
2021/10/17 02:35:19;;;;;;;0.50;0.40;;;7.60;99.90;;;;;;5011584;28;20197;-76
2021/10/17 02:37:46;;;;;;;2.05;1.95;;;7.60;99.90;;;;;;5011560;28;20203;-76
2021/10/17 02:40:13;;;;;;;9.15;1.70;;;7.70;99.90;;;;;;5011220;28;20221;-78
2021/10/17 02:42:40;;;;;;;0.50;0.40;;;7.70;99.90;;;;;;5011640;28;20594;-76
2021/10/17 02:45:08;;;;;;;0.80;0.80;;;7.80;99.90;;;;;;5011871;28;20566;-76
2021/10/17 02:47:36;;;;;;;0.50;0.40;;;7.90;99.90;;;;;;5011614;28;20193;-76
2021/10/17 02:50:03;;;;;;;0.50;0.40;;;7.90;99.90;;;;;;5011320;28;20193;-75
2021/10/17 02:52:29;;;;;;;0.50;0.40;;;7.90;99.90;;;;;;5012003;28;20228;-78
2021/10/17 02:54:56;;;;;;;0.50;0.50;;;8.00;99.90;;;;;;5011736;28;20198;-77
2021/10/17 02:57:23;;;;;;;0.82;0.82;;;8.00;99.90;;;;;;5011775;28;20561;-77
2021/10/17 02:59:50;;;;;;;0.50;0.50;;;8.10;99.90;;;;;;5011176;28;20201;-76
2021/10/17 03:02:16;;;;;;;2.10;1.30;;;8.10;99.90;;;;;;5011080;28;20217;-77
2021/10/17 03:04:44;;;;;;;0.70;0.70;;;8.10;99.90;;;;;;5011674;28;20197;-76
2021/10/17 03:07:11;;;;;;;0.50;0.50;;;8.10;99.90;;;;;;5012021;28;20213;-76
2021/10/17 03:09:38;;;;;;;0.70;0.70;;;8.20;99.90;;;;;;5011420;28;20212;-76
2021/10/17 03:12:05;;;;;;;0.50;0.50;;;8.20;99.90;;;;;;5010673;28;20223;-76
2021/10/17 03:14:32;;;;;;;1.23;1.05;;;8.20;99.90;;;;;;5011215;28;20200;-76
2021/10/17 03:16:59;;;;;;;0.75;0.75;;;8.20;99.90;;;;;;5011664;28;20198;-78
2021/10/17 03:19:26;;;;;;;2.42;2.22;;;8.20;99.90;;;;;;5011297;28;20212;-77
2021/10/17 03:21:54;;;;;;;0.50;0.50;;;8.20;99.90;;;;;;5010718;28;20233;-76
2021/10/17 03:24:21;;;;;;;0.60;0.60;;;8.20;99.90;;;;;;5011466;28;20208;-76
2021/10/17 03:26:47;;;;;;;0.57;0.55;;;8.20;99.90;;;;;;5011273;28;20205;-75
2021/10/17 03:29:14;;;;;;;1.40;1.30;;;8.10;99.90;;;;;;5015018;28;20197;-76
2021/10/17 03:31:42;;;;;;;0.60;0.60;;;8.10;99.90;;;;;;5014464;28;20215;-77
2021/10/17 03:34:09;;;;;;;1.00;0.77;;;8.10;99.90;;;;;;5014844;28;20263;-77
2021/10/17 03:36:35;;;;;;;0.50;0.40;;;8.10;99.90;;;;;;5014234;28;20209;-76
2021/10/17 03:39:04;;;;;;;0.50;0.50;;;8.10;99.90;;;;;;5014640;28;20664;-76
2021/10/17 03:41:31;;;;;;;0.50;0.40;;;8.20;99.90;;;;;;5014292;28;20589;-76
2021/10/17 03:43:58;;;;;;;0.98;0.98;;;8.20;99.90;;;;;;5014810;28;20207;-76
2021/10/17 03:46:24;;;;;;;0.50;0.40;;;8.20;99.90;;;;;;5014870;28;20201;-77
2021/10/17 03:48:51;;;;;;;0.70;0.68;;;8.30;99.90;;;;;;5014264;28;20203;-74
2021/10/17 03:51:18;;;;;;;0.50;0.50;;;8.40;99.90;;;;;;5014161;28;20197;-77
2021/10/17 03:53:45;;;;;;;1.50;1.23;;;8.40;99.90;;;;;;5014792;28;20204;-76
2021/10/17 03:56:13;;;;;;;0.60;0.60;;;8.30;99.90;;;;;;5014583;28;20208;-78
2021/10/17 03:58:40;;;;;;;3.63;2.45;;;8.40;99.90;;;;;;5013959;28;20209;-75
2021/10/17 04:01:07;;;;;;;0.50;0.40;;;8.40;99.90;;;;;;5013812;28;20698;-76
2021/10/17 04:03:33;;;;;;;0.88;0.88;;;8.40;99.90;;;;;;5014066;28;20226;-76
2021/10/17 04:06:00;;;;;;;0.50;0.40;;;8.40;99.90;;;;;;5014260;28;20203;-76
2021/10/17 04:08:27;;;;;;;0.60;0.50;;;8.40;99.90;;;;;;5014132;28;20679;-76
2021/10/17 04:10:54;;;;;;;0.60;0.60;;;8.40;99.90;;;;;;5014207;28;20558;-75
2021/10/17 04:13:22;;;;;;;0.50;0.40;;;8.40;99.90;;;;;;5013592;28;20232;-76
2021/10/17 04:15:48;;;;;;;0.60;0.60;;;8.50;99.90;;;;;;5013783;28;20200;-76
2021/10/17 04:18:15;;;;;;;0.50;0.40;;;8.50;99.90;;;;;;5014003;28;20214;-78
2021/10/17 04:20:42;;;;;;;0.50;0.40;;;8.50;99.90;;;;;;5013098;28;20226;-76
2021/10/17 04:23:09;;;;;;;0.50;0.40;;;8.40;99.90;;;;;;5013934;28;20246;-76
2021/10/17 04:25:36;;;;;;;0.50;0.40;;;8.40;99.90;;;;;;5013805;28;20204;-77
2021/10/17 04:28:03;;;;;;;0.50;0.40;;;8.40;99.90;;;;;;5013321;28;20195;-77
2021/10/17 04:30:32;;;;;;;0.70;0.70;;;8.40;99.90;;;;;;5013255;28;20203;-76
2021/10/17 04:32:58;;;;;;;0.50;0.40;;;8.50;99.90;;;;;;5013375;28;20229;-76
2021/10/17 04:35:25;;;;;;;0.50;0.40;;;8.50;99.90;;;;;;5013655;28;20196;-77
2021/10/17 04:37:52;;;;;;;0.50;0.40;;;8.50;99.90;;;;;;5013209;28;20227;-76
2021/10/17 04:40:21;;;;;;;0.50;0.40;;;8.50;99.90;;;;;;5013296;28;20209;-78
2021/10/17 04:42:48;;;;;;;0.50;0.40;;;8.50;99.90;;;;;;5012919;28;20225;-76
2021/10/17 04:45:14;;;;;;;0.50;0.40;;;8.40;99.90;;;;;;5013297;28;20207;-75
2021/10/17 04:47:42;;;;;;;0.60;0.50;;;8.50;99.90;;;;;;5013149;28;20199;-76
2021/10/17 04:50:09;;;;;;;2.35;1.65;;;8.50;99.90;;;;;;5013169;28;20574;-77
2021/10/17 04:52:36;;;;;;;0.50;0.40;;;8.60;99.90;;;;;;5012934;28;20212;-77
2021/10/17 04:55:07;;;;;;;0.63;0.63;;;8.50;99.90;;;;;;5013126;28;20205;-76
2021/10/17 04:57:34;;;;;;;0.50;0.40;;;8.50;99.90;;;;;;5013137;28;20185;-76
2021/10/17 05:00:01;;;;;;;0.50;0.40;;;8.50;99.90;;;;;;5013105;28;20194;-76
2021/10/17 05:02:28;;;;;;;0.60;0.60;;;8.40;99.90;;;;;;5012891;28;20225;-77
2021/10/17 05:04:56;;;;;;;0.50;0.40;;;8.40;99.90;;;;;;5012538;28;20203;-76
2021/10/17 05:07:23;;;;;;;0.50;0.40;;;8.50;99.90;;;;;;5012728;28;20670;-76
2021/10/17 05:09:50;;;;;;;0.50;0.40;;;8.50;99.90;;;;;;5012712;28;20204;-76
2021/10/17 05:12:16;;;;;;;0.50;0.40;;;8.40;99.90;;;;;;5012223;28;20231;-77
2021/10/17 05:14:43;;;;;;;0.50;0.40;;;8.40;99.90;;;;;;5012530;28;20192;-76
2021/10/17 05:17:10;;;;;;;0.50;0.40;;;8.40;99.90;;;;;;5012804;28;20584;-77
2021/10/17 05:19:37;;;;;;;0.50;0.50;;;8.30;99.90;;;;;;5012708;28;20204;-74
2021/10/17 05:22:05;;;;;;;0.50;0.40;;;8.30;99.90;;;;;;5012154;28;20216;-77
2021/10/17 05:24:31;;;;;;;0.50;0.40;;;8.20;99.90;;;;;;5012484;28;20682;-77
2021/10/17 05:26:58;;;;;;;0.50;0.40;;;8.20;99.90;;;;;;5012570;28;20204;-77
2021/10/17 05:29:25;;;;;;;3.88;3.53;;;8.30;99.90;;;;;;5012144;28;20935;-73
2021/10/17 05:31:52;;;;;;;0.50;0.40;;;8.30;99.90;;;;;;5012071;28;20223;-78
2021/10/17 05:34:18;;;;;;;2.28;2.15;;;8.20;99.90;;;;;;5012760;28;20200;-75
2021/10/17 05:36:45;;;;;;;0.50;0.50;;;8.20;99.90;;;;;;5012867;28;20570;-77
2021/10/17 05:39:13;;;;;;;0.50;0.40;;;8.20;99.90;;;;;;5012186;28;20201;-76
2021/10/17 05:41:40;;;;;;;0.50;0.40;;;8.20;99.90;;;;;;5011614;28;20228;-76
2021/10/17 05:44:07;;;;;;;0.50;0.40;;;8.20;99.90;;;;;;5012532;28;20697;-76
2021/10/17 05:46:33;;;;;;;5.40;1.25;;;8.20;99.90;;;;;;5012196;28;20200;-77
2021/10/17 05:49:00;;;;;;;3.72;3.53;;;8.20;99.90;;;;;;5012252;28;20677;-77
2021/10/17 05:51:27;;;;;;;0.50;0.40;;;8.30;99.90;;;;;;5011207;28;20682;-78
2021/10/17 05:53:54;;;;;;;0.50;0.40;;;8.40;99.90;;;;;;5012578;28;20207;-77
2021/10/17 05:56:22;;;;;;;0.50;0.40;;;8.40;99.90;;;;;;5012520;28;20656;-73
2021/10/17 05:58:48;;;;;;;0.50;0.40;;;8.30;99.90;;;;;;5012059;28;20202;-76
2021/10/17 06:01:15;;;;;;;0.50;0.40;;;8.20;99.90;;;;;;5011664;28;20587;-76
2021/10/17 06:03:42;;;;;;;0.50;0.40;;;8.10;99.90;;;;;;5012193;28;20214;-75
2021/10/17 06:06:09;;;;;;;0.50;0.40;;;8.10;99.90;;;;;;5012278;28;20196;-76
2021/10/17 06:08:36;;;;;;;0.50;0.50;;;8.10;99.90;;;;;;5011594;28;20196;-76
2021/10/17 06:11:04;;;;;;;0.50;0.40;;;8.20;99.90;;;;;;5011670;28;20283;-77
2021/10/17 06:13:33;;;;;;;0.50;0.40;;;8.20;99.90;;;;;;5011762;28;20224;-76
2021/10/17 06:16:00;;;;;;;0.50;0.50;;;8.30;99.90;;;;;;5011799;28;20199;-73
2021/10/17 06:18:28;;;;;;;0.50;0.40;;;8.30;99.90;;;;;;5011814;28;20196;-76
2021/10/17 06:20:55;;;;;;;0.50;0.50;;;8.40;99.90;;;;;;5011409;28;20211;-77
2021/10/17 06:23:21;;;;;;;1.60;1.45;;;8.40;99.90;;;;;;5011894;28;20216;-76
2021/10/17 06:25:48;;;;;;;0.50;0.40;;;8.40;99.90;;;;;;5012148;28;20575;-76
2021/10/17 06:28:15;;;;;;;0.50;0.40;;;8.40;99.90;;;;;;5011909;28;20197;-76
2021/10/17 06:30:43;;;;;;;0.50;0.40;;;8.50;99.90;;;;;;5010940;28;20201;-77
2021/10/17 06:33:10;;;;;;;0.50;0.40;;;8.40;99.90;;;;;;5012114;28;20218;-76
2021/10/17 06:35:37;;;;;;;0.50;0.40;;;8.50;99.90;;;;;;5012026;28;20570;-76
2021/10/17 06:38:04;;;;;;;0.50;0.40;;;8.50;99.90;;;;;;5011572;28;20200;-76
2021/10/17 06:40:30;;;;;;;0.50;0.40;;;8.60;99.90;;;;;;5011339;28;20208;-76
2021/10/17 06:42:57;;;;;;;0.50;0.40;;;8.60;99.90;;;;;;5011139;28;20222;-76
2021/10/17 06:45:24;;;;;;;0.50;0.40;;;8.70;99.90;;;;;;5011614;28;20250;-76
2021/10/17 06:47:52;;;;;;;0.50;0.40;;;8.70;99.90;;;;;;5011812;28;20200;-77
2021/10/17 06:50:20;;;;;;;0.50;0.40;;;8.70;99.90;;;;;;5011448;28;20204;-77
2021/10/17 06:52:47;;;;;;;1.23;0.93;;;8.80;99.90;;;;;;5011177;28;20219;-76
2021/10/17 06:55:14;;;;;;;0.50;0.40;;;8.80;99.90;;;;;;5011429;28;20212;-76
2021/10/17 06:57:41;;;;;;;0.50;0.40;;;8.80;99.90;;;;;;5011391;28;20201;-76
2021/10/17 07:00:09;;;;;;;55.25;51.22;;;8.80;99.90;;;;;;5011181;28;20204;-76
2021/10/17 07:02:36;;;;;;;0.50;0.40;;;8.90;99.90;;;;;;5014307;28;20714;-76
2021/10/17 07:05:04;;;;;;;0.50;0.40;;;8.90;99.90;;;;;;5015345;28;20208;-76
2021/10/17 07:07:32;;;;;;;0.50;0.40;;;8.90;99.90;;;;;;5015486;28;20192;-76
2021/10/17 07:09:59;;;;;;;0.50;0.40;;;9.00;99.90;;;;;;5014819;28;20207;-76
2021/10/17 07:12:26;;;;;;;0.50;0.40;;;9.10;99.90;;;;;;5014664;28;20221;-75
2021/10/17 07:14:53;;;;;;;0.50;0.40;;;9.10;99.90;;;;;;5014861;28;20578;-76
2021/10/17 07:17:20;;;;;;;0.50;0.40;;;9.10;99.90;;;;;;5014950;28;20576;-76
2021/10/17 07:19:46;;;;;;;0.50;0.50;;;9.00;99.90;;;;;;5014856;28;20693;-76
2021/10/17 07:22:15;;;;;;;0.50;0.40;;;9.10;99.90;;;;;;5014547;28;20726;-76
2021/10/17 07:24:41;;;;;;;1.45;1.45;;;9.20;99.90;;;;;;5014671;28;20193;-76
2021/10/17 07:27:08;;;;;;;0.50;0.40;;;9.20;99.90;;;;;;5014970;28;20197;-76
2021/10/17 07:29:35;;;;;;;0.50;0.40;;;9.20;99.90;;;;;;5014635;28;20376;-76
2021/10/17 07:32:02;;;;;;;0.50;0.40;;;9.20;99.90;;;;;;5014160;28;20728;-75
2021/10/17 07:34:29;;;;;;;0.50;0.50;;;9.30;99.90;;;;;;5014503;28;20193;-75
2021/10/17 07:36:55;;;;;;;0.50;0.40;;;9.30;99.90;;;;;;5014441;28;20670;-75
2021/10/17 07:39:24;;;;;;;0.50;0.40;;;9.40;99.90;;;;;;5014515;28;20201;-78
2021/10/17 07:41:50;;;;;;;0.50;0.40;;;9.40;99.90;;;;;;5013939;28;20222;-76
2021/10/17 07:44:18;;;;;;;0.50;0.40;;;9.40;99.90;;;;;;5014074;28;20211;-76
2021/10/17 07:46:45;;;;;;;0.50;0.40;;;9.50;99.90;;;;;;5014609;28;20204;-77
2021/10/17 07:49:11;;;;;;;0.50;0.40;;;9.60;99.90;;;;;;5013799;28;20202;-76
2021/10/17 07:51:38;;;;;;;1.17;1.10;;;9.60;99.90;;;;;;5014057;28;20228;-75
2021/10/17 07:54:05;;;;;;;1.65;1.55;;;9.60;99.90;;;;;;5014151;28;20216;-76
2021/10/17 07:56:33;;;;;;;0.80;0.80;;;9.70;99.90;;;;;;5014558;28;20228;-76
2021/10/17 07:59:00;;;;;;;1.65;1.58;;;9.70;99.90;;;;;;5013923;28;20197;-76
2021/10/17 08:01:27;;;;;;;0.50;0.40;;;9.80;99.90;;;;;;5013712;28;20197;-76
2021/10/17 08:03:53;;;;;;;0.50;0.40;;;9.80;99.90;;;;;;5013837;28;20206;-75
2021/10/17 08:06:20;;;;;;;0.50;0.40;;;9.90;99.90;;;;;;5014115;28;20208;-76
2021/10/17 08:08:47;;;;;;;1.25;1.15;;;9.90;99.90;;;;;;5013948;28;20194;-76
2021/10/17 08:11:16;;;;;;;0.50;0.40;;;9.90;99.90;;;;;;5013704;28;20202;-75
2021/10/17 08:13:44;;;;;;;0.50;0.40;;;10.00;99.90;;;;;;5017599;22;20227;-79
2021/10/17 08:16:11;;;;;;;0.50;0.40;;;10.10;99.90;;;;;;5001138;28;20192;-80
2021/10/17 08:18:38;;;;;;;11.25;0.90;;;10.30;99.90;;;;;;5001021;28;20205;-80
2021/10/17 08:21:05;;;;;;;0.82;0.82;;;10.30;99.90;;;;;;5002395;28;20206;-81
2021/10/17 08:23:32;;;;;;;0.50;0.40;;;10.40;99.90;;;;;;5002036;28;20226;-79
2021/10/17 08:25:58;;;;;;;0.70;0.68;;;10.30;99.90;;;;;;5000619;28;20206;-80
2021/10/17 08:28:25;;;;;;;1.65;1.55;;;10.30;99.90;;;;;;5001245;28;20219;-82
2021/10/17 08:30:53;;;;;;;0.50;0.40;;;10.30;99.90;;;;;;5001359;28;20213;-80
2021/10/17 08:33:20;;;;;;;0.50;0.40;;;10.20;99.90;;;;;;5001968;28;20694;-79
2021/10/17 08:35:47;;;;;;;0.77;0.70;;;10.30;99.90;;;;;;5001902;28;20203;-81
2021/10/17 08:38:14;;;;;;;0.60;0.60;;;10.40;99.90;;;;;;5001324;28;20196;-80
2021/10/17 08:40:41;;;;;;;0.50;0.40;;;10.50;99.90;;;;;;5001214;28;20204;-78
2021/10/17 08:43:07;;;;;;;0.60;0.50;;;10.60;99.90;;;;;;5000823;28;20226;-78
2021/10/17 08:45:34;;;;;;;0.60;0.60;;;10.70;99.90;;;;;;5001020;28;20198;-81
2021/10/17 08:48:03;;;;;;;0.50;0.40;;;10.80;99.90;;;;;;5000957;28;20193;-81
2021/10/17 08:50:31;;;;;;;0.50;0.50;;;10.90;99.90;;;;;;4999707;28;20204;-81
2021/10/17 08:52:57;;;;;;;0.80;0.80;;;11.00;99.90;;;;;;4999937;28;20215;-80
2021/10/17 08:55:24;;;;;;;0.50;0.40;;;11.10;99.90;;;;;;4999620;28;20204;-81
2021/10/17 08:57:53;;;;;;;0.50;0.40;;;11.10;99.90;;;;;;4999566;28;20198;-81
2021/10/17 09:00:28;;;;;;;0.90;0.90;;;11.30;99.90;;;;;;4999382;28;20200;-81
2021/10/17 09:02:55;;;;;;;0.85;0.85;;;11.30;99.90;;;;;;4999874;28;20751;-81
2021/10/17 09:05:35;;;;;;;0.50;0.50;;;11.30;99.90;;;;;;4998902;28;20283;-81
2021/10/17 09:08:02;;;;;;;0.50;0.50;;;11.20;99.90;;;;;;5000249;28;20199;-80
2021/10/17 09:10:29;;;;;;;0.52;0.47;;;11.20;99.90;;;;;;4999299;28;20199;-81
2021/10/17 09:13:07;;;;;;;0.50;0.40;;;11.20;99.90;;;;;;4999769;28;20228;-81
2021/10/17 09:15:34;;;;;;;0.50;0.40;;;11.30;99.90;;;;;;5000221;28;20210;-81
2021/10/17 09:18:14;;;;;;;0.50;0.40;;;11.50;99.90;;;;;;4999431;28;20671;-80
2021/10/17 09:21:00;;;;;;;0.50;0.40;;;11.70;99.90;;;;;;4999436;28;20450;-81
2021/10/17 09:23:42;;;;;;;0.73;0.73;;;12.00;99.90;;;;;;5000563;28;20484;-81
2021/10/17 09:26:18;;;;;;;0.60;0.50;;;12.10;99.90;;;;;;4998271;28;20200;-79
2021/10/17 09:28:46;;;;;;;0.50;0.40;;;12.30;99.90;;;;;;5000445;28;20806;-81
2021/10/17 09:31:16;;;;;;;0.50;0.40;;;12.30;99.90;;;;;;4998291;28;20283;-80
2021/10/17 09:33:46;;;;;;;0.50;0.40;;;12.30;99.90;;;;;;4999091;28;20518;-80
2021/10/17 09:36:24;;;;;;;1.47;1.37;;;12.40;99.90;;;;;;4998633;28;20440;-78
2021/10/17 09:38:54;;;;;;;0.50;0.40;;;12.50;99.90;;;;;;4999300;28;20424;-80
2021/10/17 09:41:24;;;;;;;0.50;0.40;;;12.70;99.90;;;;;;4998144;28;20231;-79
2021/10/17 09:43:55;;;;;;;0.50;0.40;;;12.80;99.90;;;;;;4998456;28;20491;-81
2021/10/17 09:46:23;;;;;;;0.50;0.40;;;12.80;99.90;;;;;;4998537;28;20444;-83
2021/10/17 09:48:50;;;;;;;0.50;0.40;;;12.80;99.90;;;;;;4998968;28;20480;-80
2021/10/17 09:51:18;;;;;;;0.50;0.40;;;13.00;99.90;;;;;;4997770;28;20454;-80
2021/10/17 09:53:49;;;;;;;0.50;0.40;;;13.30;99.90;;;;;;4998515;28;20546;-80
2021/10/17 09:56:33;;;;;;;0.50;0.40;;;13.30;99.90;;;;;;4997956;28;20445;-80
2021/10/17 09:59:01;;;;;;;0.50;0.40;;;13.50;99.90;;;;;;4998312;28;20436;-80
2021/10/17 10:01:28;;;;;;;0.50;0.40;;;13.70;99.90;;;;;;4997692;28;20526;-81
2021/10/17 10:03:56;;;;;;;0.50;0.40;;;13.80;99.90;;;;;;4998147;28;20858;-81
2021/10/17 10:06:25;;;;;;;0.50;0.40;;;13.80;99.90;;;;;;4997958;28;20444;-81
2021/10/17 10:09:00;;;;;;;0.50;0.40;;;13.90;99.90;;;;;;4998618;28;20449;-79
2021/10/17 10:11:28;;;;;;;0.50;0.40;;;14.10;99.90;;;;;;4997904;28;20506;-81
2021/10/17 10:13:57;;;;;;;0.50;0.40;;;14.40;99.90;;;;;;4998163;28;21006;-81
2021/10/17 10:16:26;;;;;;;0.50;0.40;;;14.60;99.90;;;;;;4997009;28;20448;-80
2021/10/17 10:18:54;;;;;;;0.50;0.40;;;14.70;99.90;;;;;;4998037;28;20439;-81
2021/10/17 10:21:22;;;;;;;0.50;0.40;;;14.80;99.90;;;;;;4997314;28;20436;-77
2021/10/17 10:23:51;;;;;;;0.90;0.90;;;14.70;99.90;;;;;;4998461;28;20484;-79
2021/10/17 10:26:21;;;;;;;0.50;0.40;;;14.90;99.90;;;;;;4997958;28;20455;-80
2021/10/17 10:28:48;;;;;;;0.50;0.40;;;15.10;99.90;;;;;;4997290;28;20455;-78
2021/10/17 10:31:44;;;;;;;0.50;0.40;;;15.30;99.90;;;;;;4997465;28;20958;-81
2021/10/17 10:34:12;;;;;;;0.50;0.40;;;15.40;99.90;;;;;;4998057;28;20470;-81
2021/10/17 10:36:40;;;;;;;0.50;0.40;;;15.50;99.90;;;;;;4999730;28;20466;-81
2021/10/17 10:39:08;;;;;;;0.50;0.40;;;15.60;99.90;;;;;;5001882;28;20491;-80
2021/10/17 10:41:48;;;;;;;0.50;0.40;;;15.70;99.90;;;;;;5001793;28;20764;-80
2021/10/17 10:44:16;;;;;;;0.50;0.40;;;15.80;99.90;;;;;;5001591;28;20485;-81
2021/10/17 10:46:45;;;;;;;0.50;0.40;;;16.10;99.90;;;;;;5002176;28;21152;-80
2021/10/17 10:49:12;;;;;;;0.50;0.40;;;16.10;99.90;;;;;;5002384;28;20451;-79
2021/10/17 10:51:40;;;;;;;0.50;0.40;;;16.10;99.90;;;;;;5001928;28;20443;-80
2021/10/17 10:54:08;;;;;;;0.50;0.40;;;16.10;99.90;;;;;;5002440;28;20471;-81
2021/10/17 10:56:43;;;;;;;0.50;0.40;;;16.10;99.90;;;;;;5002470;28;20450;-81
2021/10/17 10:59:13;;;;;;;0.50;0.40;;;16.20;99.90;;;;;;5001613;28;20471;-81
2021/10/17 11:01:53;;;;;;;0.50;0.40;;;16.30;99.90;;;;;;5001601;28;20452;-81
2021/10/17 11:05:00;;;;;;;0.50;0.40;;;16.50;99.90;;;;;;5001604;28;20481;-80
2021/10/17 11:07:33;;;;;;;0.50;0.40;;;16.60;99.90;;;;;;4922033;29;20444;-82
2021/10/17 11:10:41;;;;;;;0.60;0.50;;;16.60;99.90;;;;;;4991905;28;20449;-80
2021/10/17 11:13:10;;;;;;;0.50;0.40;;;16.70;99.90;;;;;;5001413;28;20472;-79
2021/10/17 11:15:40;;;;;;;0.50;0.40;;;16.80;99.90;;;;;;5002302;28;20463;-79
2021/10/17 11:18:08;;;;;;;0.50;0.30;;;16.80;99.90;;;;;;5001652;28;20448;-79
2021/10/17 11:20:38;;;;;;;0.50;0.40;;;16.90;99.90;;;;;;5001347;28;20448;-80
2021/10/17 11:23:06;;;;;;;0.50;0.40;;;16.70;99.90;;;;;;5001419;28;20846;-81
2021/10/17 11:25:34;;;;;;;0.50;0.40;;;16.70;99.90;;;;;;5001335;28;20446;-81
2021/10/17 11:28:01;;;;;;;0.60;0.50;;;16.60;99.90;;;;;;5001354;28;20443;-81
2021/10/17 11:30:30;;;;;;;0.50;0.40;;;16.00;99.90;;;;;;5002124;28;20452;-81
2021/10/17 11:32:59;;;;;;;0.50;0.40;;;16.10;99.90;;;;;;5001760;28;20456;-80
2021/10/17 11:35:28;;;;;;;0.50;0.37;;;16.30;99.90;;;;;;5001307;28;20444;-80
2021/10/17 11:37:55;;;;;;;0.50;0.50;;;16.50;99.90;;;;;;5001475;28;20441;-80
2021/10/17 11:40:21;;;;;;;0.50;0.40;;;16.90;99.90;;;;;;5000855;28;20452;-79
2021/10/17 11:42:49;;;;;;;0.50;0.40;;;16.90;99.90;;;;;;5002169;28;20488;-81
2021/10/17 11:45:18;;;;;;;0.60;0.50;;;16.80;99.90;;;;;;5001771;28;20450;-80
2021/10/17 11:47:45;;;;;;;0.50;0.47;;;16.50;99.90;;;;;;5000640;28;20442;-79
2021/10/17 11:50:17;;;;;;;0.60;0.40;;;16.70;99.90;;;;;;5000843;28;20440;-81
2021/10/17 11:52:56;;;;;;;3.37;1.13;;;16.70;99.90;;;;;;5001024;28;20466;-80
2021/10/17 11:55:34;;;;;;;0.50;0.30;;;16.50;99.90;;;;;;5001807;28;20815;-81
2021/10/17 11:58:03;;;;;;;0.50;0.40;;;16.50;99.90;;;;;;5001828;28;20814;-80
2021/10/17 12:00:32;;;;;;;0.50;0.40;;;16.60;99.90;;;;;;5001009;28;20445;-80
2021/10/17 12:02:59;;;;;;;0.50;0.40;;;16.90;99.90;;;;;;5001254;28;20568;-80
2021/10/17 12:05:28;;;;;;;0.50;0.30;;;17.10;99.90;;;;;;5000316;28;20838;-79
2021/10/17 12:07:58;;;;;;;0.50;0.40;;;17.20;99.90;;;;;;5000438;28;20445;-81
2021/10/17 12:10:26;;;;;;;1.47;0.77;;;17.50;99.90;;;;;;4999927;28;20496;-79
2021/10/17 12:12:58;;;;;;;0.50;0.40;;;17.40;99.90;;;;;;5000884;28;20520;-79
2021/10/17 12:15:25;;;;;;;0.60;0.60;;;17.50;99.90;;;;;;5000562;28;20445;-80
2021/10/17 12:18:02;;;;;;;0.50;0.37;;;17.60;99.90;;;;;;5000774;28;20454;-81
2021/10/17 12:20:32;;;;;;;0.50;0.30;;;17.80;99.90;;;;;;5000567;28;20437;-80
2021/10/17 12:23:01;;;;;;;0.60;0.50;;;17.90;95.60;;;;;;4999996;28;20496;-80
2021/10/17 12:25:28;;;;;;;0.60;0.43;;;17.50;94.40;;;;;;5000683;28;20497;-80
2021/10/17 12:27:55;;;;;;;0.50;0.40;;;17.30;95.20;;;;;;4999649;28;20446;-82
2021/10/17 12:30:25;;;;;;;0.60;0.57;;;17.10;95.80;;;;;;5000208;28;20445;-79
2021/10/17 12:32:54;;;;;;;0.60;0.57;;;17.10;97.50;;;;;;5000072;28;20475;-80
2021/10/17 12:35:32;;;;;;;0.83;0.77;;;17.00;95.50;;;;;;5000504;28;20448;-79
2021/10/17 12:38:06;;;;;;;0.50;0.50;;;17.00;95.90;;;;;;4999241;28;20445;-80
2021/10/17 12:40:33;;;;;;;0.50;0.40;;;16.80;94.40;;;;;;4999442;28;20460;-80
2021/10/17 12:43:02;;;;;;;0.50;0.40;;;16.50;97.00;;;;;;4999702;28;20470;-80
2021/10/17 12:45:29;;;;;;;1.67;0.87;;;16.30;96.80;;;;;;4999755;28;20440;-81
2021/10/17 12:47:57;;;;;;;0.50;0.40;;;16.30;96.40;;;;;;4999420;28;20819;-83
2021/10/17 12:50:26;;;;;;;0.50;0.40;;;16.20;97.80;;;;;;4999406;28;20951;-81
2021/10/17 12:53:00;;;;;;;0.50;0.40;;;16.20;99.90;;;;;;4999745;28;20523;-82
2021/10/17 12:55:32;;;;;;;0.50;0.30;;;16.40;99.90;;;;;;4999566;28;20428;-82
2021/10/17 12:58:16;;;;;;;0.50;0.30;;;17.00;99.90;;;;;;4999341;28;20456;-81